Flight Track Log - Related Links

Times and Time Zones

All times are in EDT time to prevent confusion due to time zone crossing. See the D-AIMA flight status page for this flight to view local times or setup timezone preferences in your user account.

Time Position Orientation Groundspeed Altitude Reporting Facility
EDT Latitude Longitude Course Direction KTS MPH feet Rate Location/Type
Sat 11:18:00 PM 41.6844 114.7314 319° Northwest  Level Estimated
Sat 11:19:00 PM 41.7726 114.6258 318° Northwest  Level Estimated
Sat 11:20:00 PM 41.8607 114.5199 318° Northwest  Level Estimated
Sat 11:21:00 PM 41.9488 114.4137 318° Northwest  Level Estimated
Sat 11:22:00 PM 42.0367 114.3071 318° Northwest  Level Estimated
Sat 11:23:00 PM 42.1246 114.2003 318° Northwest  Level Estimated
Sat 11:24:00 PM 42.2123 114.0932 318° Northwest  Level Estimated
Sat 11:25:00 PM 42.3000 113.9858 318° Northwest  Level Estimated
Sat 11:26:00 PM 42.3875 113.8782 318° Northwest  Level Estimated
Sat 11:27:00 PM 42.4750 113.7701 318° Northwest  Level Estimated
Sat 11:28:00 PM 42.5623 113.6618 318° Northwest  Level Estimated
Sat 11:29:00 PM 42.6496 113.5533 318° Northwest  Level Estimated
Sat 11:30:00 PM 42.7367 113.4443 317° Northwest  Level Estimated
Sat 11:31:00 PM 42.8237 113.3351 317° Northwest  Level Estimated
Sat 11:32:00 PM 42.9107 113.2256 317° Northwest  Level Estimated
Sat 11:33:00 PM 42.9975 113.1158 317° Northwest  Level Estimated
Sat 11:34:00 PM 43.0842 113.0056 317° Northwest  Level Estimated
Sat 11:35:00 PM 43.1708 112.8952 317° Northwest  Level Estimated
Sat 11:36:00 PM 43.2574 112.7844 317° Northwest  Level Estimated
Sat 11:37:00 PM 43.3438 112.6733 317° Northwest  Level Estimated
Sat 11:38:00 PM 43.4300 112.5619 317° Northwest  Level Estimated
Sat 11:39:00 PM 43.5162 112.4502 317° Northwest  Level Estimated
Sat 11:40:00 PM 43.6023 112.3382 317° Northwest  Level Estimated
Sat 11:41:00 PM 43.6883 112.2259 317° Northwest  Level Estimated
Sat 11:42:00 PM 43.7741 112.1132 317° Northwest  Level Estimated
Sat 11:43:00 PM 43.8599 112.0002 316° Northwest  Level Estimated
Sat 11:44:00 PM 43.9455 111.8868 316° Northwest  Level Estimated
Sat 11:45:00 PM 44.0310 111.7732 316° Northwest  Level Estimated
Sat 11:46:00 PM 44.1165 111.6592 316° Northwest  Level Estimated
Sat 11:47:00 PM 44.2017 111.5449 316° Northwest  Level Estimated
Sat 11:48:00 PM 44.2869 111.4303 316° Northwest  Level Estimated
Sat 11:49:00 PM 44.3720 111.3153 316° Northwest  Level Estimated
Sat 11:50:00 PM 44.4569 111.2000 316° Northwest  Level Estimated
Sat 11:51:00 PM 44.5418 111.0843 316° Northwest  Level Estimated
Sat 11:52:00 PM 44.6265 110.9684 316° Northwest  Level Estimated
Sat 11:53:00 PM 44.7111 110.8520 316° Northwest  Level Estimated
Sat 11:54:00 PM 44.7956 110.7354 316° Northwest  Level Estimated
Sat 11:55:00 PM 44.8799 110.6184 316° Northwest  Level Estimated
Sat 11:56:00 PM 44.9642 110.5010 315° West  Level Estimated
Sat 11:57:00 PM 45.0483 110.3833 315° West  Level Estimated
Sat 11:58:00 PM 45.1323 110.2653 315° West  Level Estimated
Sat 11:59:00 PM 45.2162 110.1469 315° West  Level Estimated
Sun 12:00:00 AM 45.2999 110.0282 315° West  Level Estimated
Sun 12:01:00 AM 45.3835 109.9091 315° West  Level Estimated
Sun 12:02:00 AM 45.4671 109.7896 315° West  Level Estimated
Sun 12:03:00 AM 45.5504 109.6699 315° West  Level Estimated
Sun 12:04:00 AM 45.6337 109.5497 315° West  Level Estimated
Sun 12:05:00 AM 45.7168 109.4292 315° West  Level Estimated
Sun 12:06:00 AM 45.7998 109.3083 315° West  Level Estimated
Sun 12:07:00 AM 45.8827 109.1871 315° West  Level Estimated
Sun 12:08:00 AM 45.9655 109.0655 314° West  Level Estimated
Sun 12:09:00 AM 46.0481 108.9436 314° West  Level Estimated
Sun 12:10:00 AM 46.1306 108.8212 314° West  Level Estimated
Sun 12:11:00 AM 46.2129 108.6986 314° West  Level Estimated
Sun 12:12:00 AM 46.2952 108.5755 314° West  Level Estimated
Sun 12:13:00 AM 46.3773 108.4521 314° West  Level Estimated
Sun 12:14:00 AM 46.4592 108.3283 314° West  Level Estimated
Sun 12:15:00 AM 46.5410 108.2041 314° West  Level Estimated
Sun 12:16:00 AM 46.6227 108.0796 314° West  Level Estimated
Sun 12:17:00 AM 46.7043 107.9547 314° West  Level Estimated
Sun 12:18:00 AM 46.7857 107.8294 314° West  Level Estimated
Sun 12:19:00 AM 46.8670 107.7037 313° West  Level Estimated
Sun 12:20:00 AM 46.9481 107.5777 313° West  Level Estimated
Sun 12:21:00 AM 47.0291 107.4512 313° West  Level Estimated
Sun 12:22:00 AM 47.1100 107.3244 313° West  Level Estimated
Sun 12:23:00 AM 47.1907 107.1972 313° West  Level Estimated
Sun 12:24:00 AM 47.2713 107.0696 313° West  Level Estimated
Sun 12:25:00 AM 47.3518 106.9416 313° West  Level Estimated
Sun 12:26:00 AM 47.4321 106.8133 313° West  Level Estimated
Sun 12:27:00 AM 47.5122 106.6845 313° West  Level Estimated
Sun 12:28:00 AM 47.5922 106.5553 313° West  Level Estimated
Sun 12:29:00 AM 47.6721 106.4258 313° West  Level Estimated
Sun 12:30:00 AM 47.7518 106.2958 312° West  Level Estimated
Sun 12:31:00 AM 47.8314 106.1655 312° West  Level Estimated
Sun 12:32:00 AM 47.9108 106.0347 312° West  Level Estimated
Sun 12:33:00 AM 47.9901 105.9036 312° West  Level Estimated
Sun 12:34:00 AM 48.0692 105.7720 312° West  Level Estimated
Sun 12:35:00 AM 48.1482 105.6401 312° West  Level Estimated
Sun 12:36:00 AM 48.2270 105.5077 312° West  Level Estimated
Sun 12:37:00 AM 48.3057 105.3749 312° West  Level Estimated
Sun 12:38:00 AM 48.3842 105.2418 312° West  Level Estimated
Sun 12:39:00 AM 48.4626 105.1082 312° West  Level Estimated
Sun 12:40:00 AM 48.5408 104.9742 311° West  Level Estimated
Sun 12:41:00 AM 48.6188 104.8398 311° West  Level Estimated
Sun 12:42:00 AM 48.6967 104.7049 311° West  Level Estimated
Sun 12:43:00 AM 48.7745 104.5697 311° West  Level Estimated
Sun 12:44:00 AM 48.8520 104.4340 311° West  Level Estimated
Sun 12:45:00 AM 48.9295 104.2979 311° West  Level Estimated
Sun 12:46:00 AM 49.0067 104.1614 311° West  Level Estimated
Sun 12:47:00 AM 49.0838 104.0245 311° West  Level Estimated
Sun 12:48:00 AM 49.1608 103.8871 311° West  Level Estimated
Sun 12:49:00 AM 49.2375 103.7493 311° West  Level Estimated
Sun 12:50:00 AM 49.3141 103.6111 310° West  Level Estimated
Sun 12:51:00 AM 49.3906 103.4725 310° West  Level Estimated
Sun 12:52:00 AM 49.4669 103.3334 310° West  Level Estimated
Sun 12:53:00 AM 49.5430 103.1939 310° West  Level Estimated
Sun 12:54:00 AM 49.6189 103.0539 310° West  Level Estimated
Sun 12:55:00 AM 49.6947 102.9135 310° West  Level Estimated
Sun 12:56:00 AM 49.7703 102.7727 310° West  Level Estimated
Sun 12:57:00 AM 49.8457 102.6314 310° West  Level Estimated
Sun 12:58:00 AM 49.9210 102.4897 310° West  Level Estimated
Sun 12:59:00 AM 49.9960 102.3476 309° West  Level Estimated
Sun 01:00:00 AM 50.0709 102.2050 309° West  Level Estimated
Sun 01:01:00 AM 50.1457 102.0620 309° West  Level Estimated
Sun 01:02:00 AM 50.2202 101.9185 309° West  Level Estimated
Sun 01:03:00 AM 50.2946 101.7746 309° West  Level Estimated
Sun 01:04:00 AM 50.3688 101.6302 309° West  Level Estimated
Sun 01:05:00 AM 50.4428 101.4853 309° West  Level Estimated
Sun 01:06:00 AM 50.5167 101.3400 309° West  Level Estimated
Sun 01:07:00 AM 50.5903 101.1943 309° West  Level Estimated
Sun 01:08:00 AM 50.6638 101.0481 308° West  Level Estimated
Sun 01:09:00 AM 50.7371 100.9015 308° West  Level Estimated
Sun 01:10:00 AM 50.8102 100.7543 308° West  Level Estimated
Sun 01:11:00 AM 50.8832 100.6068 308° West  Level Estimated
Sun 01:12:00 AM 50.9559 100.4587 308° West  Level Estimated
Sun 01:13:00 AM 51.0285 100.3102 308° West  Level Estimated
Sun 01:14:00 AM 51.1008 100.1612 308° West  Level Estimated
Sun 01:15:00 AM 51.1730 100.0118 308° West  Level Estimated
Sun 01:16:00 AM 51.2450 99.8619 308° West  Level Estimated
Sun 01:17:00 AM 51.3167 99.7115 307° West  Level Estimated
Sun 01:18:00 AM 51.3884 99.5607 307° West  Level Estimated
Sun 01:19:00 AM 51.4598 99.4094 307° West  Level Estimated
Sun 01:20:00 AM 51.5310 99.2576 307° West  Level Estimated
Sun 01:21:00 AM 51.6020 99.1053 307° West  Level Estimated
Sun 01:22:00 AM 51.6728 98.9526 307° West  Level Estimated
Sun 01:23:00 AM 51.7434 98.7994 307° West  Level Estimated
Sun 01:24:00 AM 51.8138 98.6457 307° West  Level Estimated
Sun 01:25:00 AM 51.8840 98.4915 306° West  Level Estimated
Sun 01:26:00 AM 51.9540 98.3369 306° West  Level Estimated
Sun 01:27:00 AM 52.0238 98.1817 306° West  Level Estimated
Sun 01:28:00 AM 52.0934 98.0261 306° West  Level Estimated
Sun 01:29:00 AM 52.1628 97.8700 306° West  Level Estimated
Sun 01:30:00 AM 52.2320 97.7134 306° West  Level Estimated
Sun 01:31:00 AM 52.3010 97.5563 306° West  Level Estimated
Sun 01:32:00 AM 52.3698 97.3988 306° West  Level Estimated
Sun 01:33:00 AM 52.4383 97.2407 305° West  Level Estimated
Sun 01:34:00 AM 52.5067 97.0821 305° West  Level Estimated
Sun 01:35:00 AM 52.5748 96.9231 305° West  Level Estimated
Sun 01:36:00 AM 52.6427 96.7635 305° West  Level Estimated
Sun 01:37:00 AM 52.7105 96.6035 305° West  Level Estimated
Sun 01:38:00 AM 52.7780 96.4430 305° West  Level Estimated
Sun 01:39:00 AM 52.8452 96.2819 305° West  Level Estimated
Sun 01:40:00 AM 52.9123 96.1204 305° West  Level Estimated
Sun 01:41:00 AM 52.9791 95.9584 304° West  Level Estimated
Sun 01:42:00 AM 53.0458 95.7958 304° West  Level Estimated
Sun 01:43:00 AM 53.1122 95.6328 304° West  Level Estimated
Sun 01:44:00 AM 53.1783 95.4693 304° West  Level Estimated
Sun 01:45:00 AM 53.2443 95.3052 304° West  Level Estimated
Sun 01:46:00 AM 53.3100 95.1407 304° West  Level Estimated
Sun 01:47:00 AM 53.3755 94.9756 304° West  Level Estimated
Sun 01:48:00 AM 53.4408 94.8101 304° West  Level Estimated
Sun 01:49:00 AM 53.5058 94.6440 303° West  Level Estimated
Sun 01:50:00 AM 53.5706 94.4774 303° West  Level Estimated
Sun 01:51:00 AM 53.6352 94.3103 303° West  Level Estimated
Sun 01:52:00 AM 53.6995 94.1427 303° West  Level Estimated
Sun 01:53:00 AM 53.7636 93.9746 303° West  Level Estimated
Sun 01:54:00 AM 53.8275 93.8060 303° West  Level Estimated
Sun 01:55:00 AM 53.8911 93.6368 303° West  Level Estimated
Sun 01:56:00 AM 53.9545 93.4672 302° West  Level Estimated
Sun 01:57:00 AM 54.0177 93.2970 302° West  Level Estimated
Sun 01:58:00 AM 54.0806 93.1263 302° West  Level Estimated
Sun 01:59:00 AM 54.1433 92.9551 302° West  Level Estimated
Sun 02:00:00 AM 54.2057 92.7834 302° West  Level Estimated
Sun 02:01:00 AM 54.2709 92.6029 302° West  Level Estimated
Sun 02:01:17 AM 55.0900 93.5200 302° West 36,000  Level FlightAware ADS-B
Sun 02:01:57 AM 55.1280 93.3870 297° West 475 547 36,000  Level FlightAware ADS-B
Sun 02:02:00 AM 54.3357 92.4218 302° West  Level Estimated
Sun 02:02:47 AM 55.1750 93.2200 296° West 473 544 36,000  Level FlightAware ADS-B
Sun 02:03:27 AM 55.2150 93.0790 296° West 471 542 36,000  Level FlightAware ADS-B
Sun 02:04:02 AM 55.2490 92.9560 296° West 472 543 36,000  Level FlightAware ADS-B
Sun 02:04:52 AM 55.2930 92.7980 296° West 473 544 36,000  Level FlightAware ADS-B
Sun 02:05:32 AM 55.3320 92.6580 296° West 472 543 36,000  Level FlightAware ADS-B
Sun 02:06:07 AM 55.3650 92.5360 295° West 471 542 36,000  Level FlightAware ADS-B
Sun 02:06:57 AM 55.4130 92.3610 296° West 471 542 36,000  Level FlightAware ADS-B
Sun 02:07:37 AM 55.4500 92.2360 298° West 470 541 36,000  Level FlightAware ADS-B
Sun 02:08:22 AM 55.4970 92.0690 296° West 470 541 36,000  Level FlightAware ADS-B
Sun 02:09:02 AM 55.5350 91.9310 296° West 471 542 36,000  Level FlightAware ADS-B
Sun 02:09:47 AM 55.5780 91.7770 296° West 475 547 36,000  Level FlightAware ADS-B
Sun 02:10:22 AM 55.6140 91.6490 297° West 475 547 36,000  Level FlightAware ADS-B
Sun 02:11:07 AM 55.6580 91.4900 296° West 472 543 36,000  Level FlightAware ADS-B
Sun 02:11:47 AM 55.6910 91.3700 296° West 471 542 36,000  Level FlightAware ADS-B
Sun 02:12:27 AM 55.7230 91.2520 296° West 471 542 36,000  Level FlightAware ADS-B
Sun 02:13:17 AM 55.7640 91.1040 296° West 471 542 36,000  Level FlightAware ADS-B
Sun 02:13:57 AM 55.7960 90.9850 296° West 471 542 36,000  Level FlightAware ADS-B
Sun 02:14:37 AM 55.8290 90.8670 297° West 471 542 36,000  Level FlightAware ADS-B
Sun 02:15:17 AM 55.8610 90.7480 296° West 471 542 36,000  Level FlightAware ADS-B
Sun 02:15:57 AM 55.8940 90.6300 297° West 471 542 36,000  Level FlightAware ADS-B
Sun 02:16:37 AM 55.9260 90.5110 296° West 471 542 36,000  Level FlightAware ADS-B
Sun 02:17:27 AM 55.9670 90.3620 296° West 471 542 36,000  Level FlightAware ADS-B
Sun 02:18:07 AM 55.9990 90.2430 296° West 471 542 36,000  Level FlightAware ADS-B
Sun 02:18:47 AM 56.0320 90.1240 296° West 471 542 36,000  Level FlightAware ADS-B
Sun 02:19:27 AM 56.0640 90.0050 296° West 471 542 36,000  Level FlightAware ADS-B
Sun 02:20:17 AM 56.1050 89.8550 296° West 471 542 36,000  Level FlightAware ADS-B
Sun 02:20:57 AM 56.1370 89.7360 296° West 471 542 36,000  Level FlightAware ADS-B
Sun 02:23:00 AM 56.2578 89.3341 299° West  Level Estimated
Sun 02:24:00 AM 56.3162 89.1371 298° West  Level Estimated
Sun 02:25:00 AM 56.3744 88.9395 298° West  Level Estimated
Sun 02:26:00 AM 56.4322 88.7413 298° West  Level Estimated
Sun 02:27:00 AM 56.4897 88.5425 298° West  Level Estimated
Sun 02:27:52 AM 56.5390 87.8940 298° West 476 548 36,000  Level FlightAware ADS-B
Sun 02:28:00 AM 56.5469 88.3431 298° West  Level Estimated
Sun 02:29:07 AM 56.5960 87.6100 290° West 479 551 36,000  Level FlightAware ADS-B
Sun 02:29:47 AM 56.6270 87.4560 290° West 477 549 36,000  Level FlightAware ADS-B
Sun 02:30:32 AM 56.6600 87.2910 290° West 475 547 36,000  Level FlightAware ADS-B
Sun 02:31:12 AM 56.6890 87.1410 289° West 473 544 36,000  Level FlightAware ADS-B
Sun 02:31:57 AM 56.7200 86.9800 289° West 472 543 36,000  Level FlightAware ADS-B
Sun 02:32:37 AM 56.7440 86.8520 289° West 472 543 36,000  Level FlightAware ADS-B
Sun 02:33:17 AM 56.7800 86.6740 290° West 474 545 36,000  Level FlightAware ADS-B
Sun 02:34:17 AM 56.8210 86.4580 289° West 477 549 36,000  Level FlightAware ADS-B
Sun 02:35:12 AM 56.8570 86.2600 288° West 476 548 36,000  Level FlightAware ADS-B
Sun 02:35:52 AM 56.8800 86.1290 288° West 476 548 36,000  Level FlightAware ADS-B
Sun 02:36:32 AM 56.9040 85.9990 289° West 476 548 36,000  Level FlightAware ADS-B
Sun 02:37:12 AM 56.9270 85.8680 288° West 476 548 36,000  Level FlightAware ADS-B
Sun 02:38:02 AM 56.9560 85.7050 288° West 476 548 36,000  Level FlightAware ADS-B
Sun 02:38:42 AM 56.9790 85.5750 288° West 476 548 36,000  Level FlightAware ADS-B
Sun 02:39:22 AM 57.0020 85.4440 288° West 476 548 36,000  Level FlightAware ADS-B
Sun 02:40:02 AM 57.0250 85.3130 288° West 476 548 36,000  Level FlightAware ADS-B
Sun 02:40:42 AM 57.0480 85.1820 288° West 476 548 36,000  Level FlightAware ADS-B
Sun 02:41:22 AM 57.0710 85.0510 288° West 476 548 36,000  Level FlightAware ADS-B
Sun 02:42:02 AM 57.0940 84.9200 288° West 476 548 36,000  Level FlightAware ADS-B
Sun 02:42:52 AM 57.1230 84.7560 288° West 476 548 36,000  Level FlightAware ADS-B
Sun 02:43:32 AM 57.1460 84.6250 288° West 476 548 36,000  Level FlightAware ADS-B
Sun 02:44:12 AM 57.1690 84.4940 288° West 476 548 36,000  Level FlightAware ADS-B
Sun 02:46:00 AM 57.2611 84.1186 295° West  Level Estimated
Sun 02:47:00 AM 57.3118 83.9092 294° West  Level Estimated
Sun 02:48:00 AM 57.3621 83.6993 294° West  Level Estimated
Sun 02:49:00 AM 57.4121 83.4888 294° West  Level Estimated
Sun 02:50:00 AM 57.4617 83.2777 294° West  Level Estimated
Sun 02:51:00 AM 57.5110 83.0661 294° West  Level Estimated
Sun 02:52:00 AM 57.5599 82.8538 293° West  Level Estimated
Sun 02:53:00 AM 57.6085 82.6410 293° West  Level Estimated
Sun 02:54:00 AM 57.6567 82.4277 293° West  Level Estimated
Sun 02:55:00 AM 57.7045 82.2138 293° West  Level Estimated
Sun 02:56:00 AM 57.7520 81.9993 293° West  Level Estimated
Sun 02:57:00 AM 57.7991 81.7842 292° West  Level Estimated
Sun 02:58:00 AM 57.8459 81.5686 292° West  Level Estimated
Sun 02:59:00 AM 57.8923 81.3524 292° West  Level Estimated
Sun 03:00:00 AM 57.9383 81.1357 292° West  Level Estimated
Sun 03:01:00 AM 57.9840 80.9184 292° West  Level Estimated
Sun 03:02:00 AM 58.0292 80.7006 292° West  Level Estimated
Sun 03:03:00 AM 58.0742 80.4822 291° West  Level Estimated
Sun 03:04:00 AM 58.1187 80.2633 291° West  Level Estimated
Sun 03:05:00 AM 58.1628 80.0438 291° West  Level Estimated
Sun 03:06:00 AM 58.2066 79.8238 291° West  Level Estimated
Sun 03:07:00 AM 58.2500 79.6032 291° West  Level Estimated
Sun 03:08:00 AM 58.2930 79.3821 290° West  Level Estimated
Sun 03:09:00 AM 58.3357 79.1605 290° West  Level Estimated
Sun 03:10:00 AM 58.3779 78.9383 290° West  Level Estimated
Sun 03:11:00 AM 58.4198 78.7156 290° West  Level Estimated
Sun 03:12:00 AM 58.4613 78.4924 290° West  Level Estimated
Sun 03:13:00 AM 58.5024 78.2686 289° West  Level Estimated
Sun 03:14:00 AM 58.5431 78.0444 289° West  Level Estimated
Sun 03:15:00 AM 58.5834 77.8196 289° West  Level Estimated
Sun 03:16:00 AM 58.6233 77.5943 289° West  Level Estimated
Sun 03:17:00 AM 58.6628 77.3684 289° West  Level Estimated
Sun 03:18:00 AM 58.7019 77.1421 288° West  Level Estimated
Sun 03:19:00 AM 58.7407 76.9153 288° West  Level Estimated
Sun 03:20:00 AM 58.7790 76.6879 288° West  Level Estimated
Sun 03:21:00 AM 58.8169 76.4601 288° West  Level Estimated
Sun 03:22:00 AM 58.8545 76.2318 288° West  Level Estimated
Sun 03:23:00 AM 58.8916 76.0029 288° West  Level Estimated
Sun 03:24:00 AM 58.9283 75.7736 287° West  Level Estimated
Sun 03:25:00 AM 58.9646 75.5438 287° West  Level Estimated
Sun 03:26:00 AM 59.0005 75.3135 287° West  Level Estimated
Sun 03:26:32 AM 59.2600 74.9190 287° West 427 491 36,000  Level FlightAware ADS-B
Sun 03:27:00 AM 59.0360 75.0827 287° West  Level Estimated
Sun 03:27:12 AM 59.2860 74.7740 289° West 427 491 36,000  Level FlightAware ADS-B
Sun 03:27:57 AM 59.3150 74.6070 289° West 427 491 35,900  Descending FlightAware ADS-B
Sun 03:28:42 AM 59.3400 74.4490 287° West 423 487 36,000 75 Climbing FlightAware ADS-B
Sun 03:29:17 AM 59.3540 74.3260 283° West 423 487 36,000  Level FlightAware ADS-B
Sun 03:30:02 AM 59.3740 74.1560 283° West 418 481 36,000 67 Level FlightAware ADS-B
Sun 03:30:47 AM 59.3940 73.9870 283° West 418 481 36,100  Climbing FlightAware ADS-B
Sun 03:31:27 AM 59.4110 73.8430 283° West 417 480 36,000 -75 Descending FlightAware ADS-B
Sun 03:32:07 AM 59.4270 73.7020 283° West 418 481 36,000  Level FlightAware ADS-B
Sun 03:32:52 AM 59.4470 73.5260 283° West 418 481 36,000  Level FlightAware ADS-B
Sun 03:33:47 AM 59.4690 73.3300 283° West 420 483 36,000  Level FlightAware ADS-B
Sun 03:34:27 AM 59.4860 73.1720 282° West 420 483 36,000  Level FlightAware ADS-B
Sun 03:35:12 AM 59.5050 73.0060 283° West 418 481 36,000  Level FlightAware ADS-B
Sun 03:35:52 AM 59.5200 72.8590 281° West 417 480 36,000  Level FlightAware ADS-B
Sun 03:37:07 AM 59.5480 72.5920 282° West 416 479 36,000  Level FlightAware ADS-B
Sun 03:38:02 AM 59.5690 72.3900 282° West 410 472 36,000  Level FlightAware ADS-B
Sun 03:38:42 AM 59.5860 72.2290 282° West 408 470 36,000  Level FlightAware ADS-B
Sun 03:39:22 AM 59.6010 72.0830 282° West 409 471 36,000  Level FlightAware ADS-B
Sun 03:40:12 AM 59.6180 71.9090 281° West 409 471 36,000 63 Level FlightAware ADS-B
Sun 03:40:57 AM 59.6350 71.7420 281° West 409 471 36,100 67 Climbing FlightAware ADS-B
Sun 03:41:42 AM 59.6510 71.5740 281° West 409 471 36,100 -67 Level FlightAware ADS-B
Sun 03:42:27 AM 59.6670 71.4070 281° West 407 468 36,000 -80 Descending FlightAware ADS-B
Sun 03:42:57 AM 59.6760 71.3010 280° West 405 466 36,000  Level FlightAware ADS-B
Sun 03:43:57 AM 59.6930 71.1200 281° West 406 467 36,000  Level FlightAware ADS-B
Sun 03:44:52 AM 59.7140 70.8930 280° West 407 468 36,000  Level FlightAware ADS-B
Sun 03:45:42 AM 59.7300 70.7140 280° West 407 468 36,000  Level FlightAware ADS-B
Sun 03:46:27 AM 59.7440 70.5620 280° West 407 468 36,000  Level FlightAware ADS-B
Sun 03:47:22 AM 59.7580 70.3800 279° West 407 468 36,000  Level FlightAware ADS-B
Sun 03:48:02 AM 59.7680 70.2540 279° West 407 468 36,000  Level FlightAware ADS-B
Sun 03:50:00 AM 59.8189 69.7800 282° West  Level Estimated
Sun 03:51:00 AM 59.8441 69.5385 282° West  Level Estimated
Sun 03:52:00 AM 59.8689 69.2966 282° West  Level Estimated
Sun 03:53:00 AM 59.8932 69.0543 281° West  Level Estimated
Sun 03:54:00 AM 59.9170 68.8117 281° West  Level Estimated
Sun 03:55:00 AM 59.9405 68.5687 281° West  Level Estimated
Sun 03:56:00 AM 59.9635 68.3254 281° West  Level Estimated
Sun 03:57:00 AM 59.9860 68.0818 281° West  Level Estimated
Sun 03:58:00 AM 60.0081 67.8378 280° West  Level Estimated
Sun 03:59:00 AM 60.0297 67.5935 280° West  Level Estimated
Sun 04:00:00 AM 60.0509 67.3489 280° West  Level Estimated
Sun 04:01:00 AM 60.0717 67.1040 280° West  Level Estimated
Sun 04:02:00 AM 60.0919 66.8588 280° West  Level Estimated
Sun 04:03:00 AM 60.1118 66.6133 279° West  Level Estimated
Sun 04:04:00 AM 60.1311 66.3674 279° West  Level Estimated
Sun 04:05:00 AM 60.1501 66.1214 279° West  Level Estimated
Sun 04:06:00 AM 60.1685 65.8750 279° West  Level Estimated
Sun 04:07:00 AM 60.1865 65.6283 278° West  Level Estimated
Sun 04:08:00 AM 60.2041 65.3814 278° West  Level Estimated
Sun 04:09:00 AM 60.2211 65.1342 278° West  Level Estimated
Sun 04:10:00 AM 60.2378 64.8868 278° West  Level Estimated
Sun 04:11:00 AM 60.2539 64.6391 278° West  Level Estimated
Sun 04:12:00 AM 60.2696 64.3912 277° West  Level Estimated
Sun 04:13:00 AM 60.2849 64.1430 277° West  Level Estimated
Sun 04:14:00 AM 60.2996 63.8946 277° West  Level Estimated
Sun 04:15:00 AM 60.3139 63.6460 277° West  Level Estimated
Sun 04:16:00 AM 60.3278 63.3972 277° West  Level Estimated
Sun 04:17:00 AM 60.3412 63.1482 276° West  Level Estimated
Sun 04:18:00 AM 60.3541 62.8989 276° West  Level Estimated
Sun 04:19:00 AM 60.3666 62.6495 276° West  Level Estimated
Sun 04:20:00 AM 60.3785 62.3999 276° West  Level Estimated
Sun 04:21:00 AM 60.3900 62.1501 275° West  Level Estimated
Sun 04:22:00 AM 60.4011 61.9002 275° West  Level Estimated
Sun 04:23:00 AM 60.4117 61.6500 275° West  Level Estimated
Sun 04:24:00 AM 60.4218 61.3997 275° West  Level Estimated
Sun 04:25:00 AM 60.4314 61.1493 275° West  Level Estimated
Sun 04:26:00 AM 60.4406 60.8987 274° West  Level Estimated
Sun 04:27:00 AM 60.4493 60.6480 274° West  Level Estimated
Sun 04:28:00 AM 60.4575 60.3971 274° West  Level Estimated
Sun 04:29:00 AM 60.4653 60.1462 274° West  Level Estimated
Sun 04:30:00 AM 60.4726 59.8951 273° West  Level Estimated
Sun 04:31:00 AM 60.4794 59.6439 273° West  Level Estimated
Sun 04:32:00 AM 60.4857 59.3926 273° West  Level Estimated
Sun 04:32:02 AM 60.1300 60.4400 273° West 398 458 36,000  Level FlightAware ADS-B
Sun 04:32:47 AM 60.1280 60.2890 269° West 397 457 36,000  Level FlightAware ADS-B
Sun 04:33:22 AM 60.1260 60.1390 269° West 398 458 36,000  Level FlightAware ADS-B
Sun 04:34:12 AM 60.1230 59.9590 268° West 397 457 36,000  Level FlightAware ADS-B
Sun 04:34:52 AM 60.1200 59.8230 268° West 399 459 36,000  Level FlightAware ADS-B
Sun 04:35:27 AM 60.1180 59.7050 268° West 399 459 36,000  Level FlightAware ADS-B
Sun 04:36:12 AM 60.1140 59.5160 268° West 401 461 36,000  Level FlightAware ADS-B
Sun 04:36:57 AM 60.1110 59.3630 268° West 403 464 36,000  Level FlightAware ADS-B
Sun 04:37:37 AM 60.1080 59.2010 268° West 408 470 36,000 71 Level FlightAware ADS-B
Sun 04:38:22 AM 60.1040 59.0570 267° West 406 467 36,100  Climbing FlightAware ADS-B
Sun 04:39:07 AM 60.0990 58.8560 267° West 406 467 36,000 -71 Descending FlightAware ADS-B
Sun 04:39:47 AM 60.0960 58.7150 268° West 406 467 36,000  Level FlightAware ADS-B
Sun 04:40:32 AM 60.0910 58.5390 267° West 412 474 36,000  Level FlightAware ADS-B
Sun 04:41:12 AM 60.0870 58.4040 267° West 412 474 36,000  Level FlightAware ADS-B
Sun 04:41:57 AM 60.0820 58.2270 267° West 408 470 36,000  Level FlightAware ADS-B
Sun 04:42:42 AM 60.0760 58.0500 266° West 409 471 36,000  Level FlightAware ADS-B
Sun 04:43:22 AM 60.0710 57.9160 266° West 411 473 36,000  Level FlightAware ADS-B
Sun 04:43:52 AM 60.0670 57.7980 266° West 414 476 36,000  Level FlightAware ADS-B
Sun 04:44:47 AM 60.0590 57.5850 266° West 414 476 36,000  Level FlightAware ADS-B
Sun 04:45:27 AM 60.0540 57.4230 267° West 414 476 36,000  Level FlightAware ADS-B
Sun 04:46:17 AM 60.0470 57.2320 266° West 416 479 36,000  Level FlightAware ADS-B
Sun 04:47:07 AM 60.0390 57.0430 265° West 418 481 36,000  Level FlightAware ADS-B
Sun 04:47:47 AM 60.0340 56.8940 266° West 418 481 36,000  Level FlightAware ADS-B
Sun 04:48:22 AM 60.0280 56.7630 265° West 418 481 36,000  Level FlightAware ADS-B
Sun 04:49:27 AM 60.0180 56.5150 265° West 418 481 36,000  Level FlightAware ADS-B
Sun 04:50:02 AM 60.0110 56.3690 265° West 418 481 36,000  Level FlightAware ADS-B
Sun 04:50:52 AM 60.0030 56.1780 265° West 417 480 36,000  Level FlightAware ADS-B
Sun 04:51:27 AM 59.9970 56.0540 265° West 418 481 36,000  Level FlightAware ADS-B
Sun 04:52:07 AM 59.9900 55.9030 265° West 420 483 36,000  Level FlightAware ADS-B
Sun 04:52:52 AM 59.9800 55.7100 264° West 423 487 36,000  Level FlightAware ADS-B
Sun 04:53:37 AM 59.9720 55.5330 265° West 423 487 36,000  Level FlightAware ADS-B
Sun 04:54:17 AM 59.9650 55.3970 264° West 424 488 36,000  Level FlightAware ADS-B
Sun 04:55:02 AM 59.9550 55.2130 264° West 428 493 36,000  Level FlightAware ADS-B
Sun 04:55:37 AM 59.9490 55.0990 264° West 428 493 36,000  Level FlightAware ADS-B
Sun 04:56:17 AM 59.9400 54.9290 264° West 427 491 36,000  Level FlightAware ADS-B
Sun 04:57:02 AM 59.9290 54.7410 263° West 426 490 36,000  Level FlightAware ADS-B
Sun 04:57:47 AM 59.9210 54.5980 264° West 426 490 36,000  Level FlightAware ADS-B
Sun 04:58:27 AM 59.9100 54.4040 264° West 428 493 36,000  Level FlightAware ADS-B
Sun 04:59:12 AM 59.9000 54.2380 263° West 430 495 36,000  Level FlightAware ADS-B
Sun 04:59:52 AM 59.8900 54.0900 262° West 432 497 36,000  Level FlightAware ADS-B
Sun 05:00:32 AM 59.8810 53.9310 264° West 431 496 36,000  Level FlightAware ADS-B
Sun 05:01:17 AM 59.8680 53.7370 262° West 435 501 36,000  Level FlightAware ADS-B
Sun 05:01:57 AM 59.8590 53.5890 263° West 437 503 36,000  Level FlightAware ADS-B
Sun 05:02:42 AM 59.8460 53.4060 262° West 434 499 36,000  Level FlightAware ADS-B
Sun 05:03:22 AM 59.8360 53.2460 263° West 434 499 36,000  Level FlightAware ADS-B
Sun 05:04:07 AM 59.8240 53.0850 262° West 438 504 36,000  Level FlightAware ADS-B
Sun 05:04:47 AM 59.8130 52.9170 263° West 438 504 36,000  Level FlightAware ADS-B
Sun 05:05:32 AM 59.7990 52.7320 262° West 437 503 36,000  Level FlightAware ADS-B
Sun 05:06:07 AM 59.7890 52.5930 262° West 435 501 36,000  Level FlightAware ADS-B
Sun 05:06:52 AM 59.7760 52.4210 262° West 435 501 36,000  Level FlightAware ADS-B
Sun 05:07:32 AM 59.7650 52.2760 261° West 434 499 36,000  Level FlightAware ADS-B
Sun 05:08:17 AM 59.7510 52.0860 262° West 435 501 36,000  Level FlightAware ADS-B
Sun 05:09:02 AM 59.7360 51.9260 260° West 435 501 36,000  Level FlightAware ADS-B
Sun 05:09:37 AM 59.7200 51.7780 258° West 436 502 36,000  Level FlightAware ADS-B
Sun 05:10:22 AM 59.7020 51.5980 259° West 435 501 36,000  Level FlightAware ADS-B
Sun 05:11:07 AM 59.6840 51.4240 258° West 433 498 36,000  Level FlightAware ADS-B
Sun 05:11:57 AM 59.6630 51.2310 258° West 432 497 36,000  Level FlightAware ADS-B
Sun 05:12:47 AM 59.6420 51.0290 258° West 433 498 36,000  Level FlightAware ADS-B
Sun 05:13:22 AM 59.6280 50.9000 258° West 433 498 36,000  Level FlightAware ADS-B
Sun 05:14:07 AM 59.6100 50.7310 258° West 434 499 36,000  Level FlightAware ADS-B
Sun 05:14:47 AM 59.5920 50.5700 258° West 436 502 36,000  Level FlightAware ADS-B
Sun 05:15:32 AM 59.5730 50.4030 257° West 437 503 36,000  Level FlightAware ADS-B
Sun 05:16:12 AM 59.5560 50.2480 258° West 437 503 36,000  Level FlightAware ADS-B
Sun 05:16:52 AM 59.5370 50.0860 257° West 436 502 36,000  Level FlightAware ADS-B
Sun 05:17:37 AM 59.5190 49.9340 257° West 436 502 36,000  Level FlightAware ADS-B
Sun 05:18:22 AM 59.4990 49.7660 257° West 435 501 36,000  Level FlightAware ADS-B
Sun 05:19:02 AM 59.4840 49.6350 257° West 435 501 36,000  Level FlightAware ADS-B
Sun 05:19:42 AM 59.4690 49.5030 257° West 435 501 36,000  Level FlightAware ADS-B
Sun 05:20:22 AM 59.4530 49.3720 257° West 435 501 36,000  Level FlightAware ADS-B
Sun 05:21:02 AM 59.4380 49.2410 257° West 435 501 36,000  Level FlightAware ADS-B
Sun 05:21:52 AM 59.4190 49.0770 257° West 435 501 36,000  Level FlightAware ADS-B
Sun 05:22:32 AM 59.4030 48.9460 257° West 435 501 36,000  Level FlightAware ADS-B
Sun 05:23:12 AM 59.3880 48.8150 257° West 435 501 36,000  Level FlightAware ADS-B
Sun 05:23:52 AM 59.3720 48.6840 257° West 435 501 36,000  Level FlightAware ADS-B
Sun 05:24:32 AM 59.3570 48.5540 257° West 435 501 36,000  Level FlightAware ADS-B
Sun 05:25:22 AM 59.3380 48.3900 257° West 435 501 36,000  Level FlightAware ADS-B
Sun 05:26:02 AM 59.3220 48.2590 257° West 435 501 36,000  Level FlightAware ADS-B
Sun 05:26:42 AM 59.3070 48.1290 257° West 435 501 36,000  Level FlightAware ADS-B
Sun 05:27:22 AM 59.2910 47.9980 257° West 435 501 36,000  Level FlightAware ADS-B
Sun 05:30:00 AM 59.2615 47.3616 265° West  Level Estimated
Sun 05:30:47 AM 59.1180 46.8480 265° West 448 516 36,000  Level FlightAware ADS-B
Sun 05:31:00 AM 59.2494 47.1202 265° West  Level Estimated
Sun 05:32:22 AM 59.0950 46.6900 254° West 448 516 36,000  Level FlightAware ADS-B
Sun 05:32:42 AM 59.1180 46.8480 74° East 36,000  Level FlightAware ADS-B
Sun 05:33:27 AM 59.0270 46.2240 254° West 454 522 36,000  Level FlightAware ADS-B
Sun 05:34:12 AM 59.0010 46.0530 254° West 457 526 36,000  Level FlightAware ADS-B
Sun 05:34:57 AM 58.9750 45.8760 254° West 459 528 36,000  Level FlightAware ADS-B
Sun 05:35:42 AM 58.9490 45.7140 253° West 459 528 36,000  Level FlightAware ADS-B
Sun 05:36:27 AM 58.9440 45.6750 256° West 458 527 36,000  Level FlightAware ADS-B
Sun 05:37:07 AM 58.8970 45.3720 253° West 460 529 36,000  Level FlightAware ADS-B
Sun 05:37:52 AM 58.8700 45.2000 253° West 461 531 36,000  Level FlightAware ADS-B
Sun 05:38:22 AM 58.8510 45.0820 253° West 461 531 36,000  Level FlightAware ADS-B
Sun 05:39:27 AM 58.8100 44.8270 253° West 463 533 36,000  Level FlightAware ADS-B
Sun 05:40:07 AM 58.7840 44.6640 253° West 464 534 36,000  Level FlightAware ADS-B
Sun 05:40:52 AM 58.7550 44.4920 252° West 464 534 36,000  Level FlightAware ADS-B
Sun 05:41:32 AM 58.7320 44.3580 252° West 464 534 36,000  Level FlightAware ADS-B
Sun 05:42:12 AM 58.7100 44.2240 253° West 464 534 36,000  Level FlightAware ADS-B
Sun 05:42:52 AM 58.6870 44.0910 252° West 464 534 36,000  Level FlightAware ADS-B
Sun 05:43:42 AM 58.6590 43.9240 252° West 464 534 36,000  Level FlightAware ADS-B
Sun 05:44:22 AM 58.6360 43.7910 252° West 464 534 36,000  Level FlightAware ADS-B
Sun 05:45:02 AM 58.5870 43.4980 252° West 469 540 36,000  Level FlightAware ADS-B
Sun 05:45:42 AM 58.5600 43.3400 252° West 468 539 36,000  Level FlightAware ADS-B
Sun 05:46:27 AM 58.5310 43.1780 251° West 467 537 36,000  Level FlightAware ADS-B
Sun 05:47:12 AM 58.4970 42.9880 251° West 468 539 36,000  Level FlightAware ADS-B
Sun 05:47:47 AM 58.4720 42.8510 251° West 467 537 36,000  Level FlightAware ADS-B
Sun 05:48:27 AM 58.4450 42.6990 251° West 469 540 36,000  Level FlightAware ADS-B
Sun 05:49:17 AM 58.4100 42.5050 251° West 467 537 36,000  Level FlightAware ADS-B
Sun 05:49:57 AM 58.3820 42.3530 251° West 469 540 36,000  Level FlightAware ADS-B
Sun 05:50:37 AM 58.3540 42.2030 250° West 468 539 36,000  Level FlightAware ADS-B
Sun 05:51:22 AM 58.3220 42.0330 250° West 465 535 36,000  Level FlightAware ADS-B
Sun 05:52:02 AM 58.2910 41.8700 250° West 467 537 36,000  Level FlightAware ADS-B
Sun 05:52:47 AM 58.2590 41.7030 250° West 467 537 36,000  Level FlightAware ADS-B
Sun 05:53:22 AM 58.2320 41.5620 250° West 469 540 36,000  Level FlightAware ADS-B
Sun 05:54:02 AM 58.2030 41.4130 250° West 469 540 36,000  Level FlightAware ADS-B
Sun 05:54:52 AM 58.1640 41.2150 250° West 471 542 36,000  Level FlightAware ADS-B
Sun 05:55:32 AM 58.1270 41.0580 246° West 470 541 36,000  Level FlightAware ADS-B
Sun 05:56:17 AM 58.0890 40.8930 247° West 473 544 36,000  Level FlightAware ADS-B
Sun 05:56:57 AM 58.0550 40.7460 246° West 474 545 36,000  Level FlightAware ADS-B
Sun 05:57:37 AM 58.0180 40.5880 246° West 475 547 36,000  Level FlightAware ADS-B
Sun 05:58:17 AM 57.9860 40.4490 247° West 473 544 36,000  Level FlightAware ADS-B
Sun 05:59:02 AM 57.9440 40.2720 246° West 472 543 36,000  Level FlightAware ADS-B
Sun 05:59:37 AM 57.9120 40.1380 246° West 475 547 36,000  Level FlightAware ADS-B
Sun 06:00:27 AM 57.8660 39.9430 246° West 476 548 36,000  Level FlightAware ADS-B
Sun 06:01:07 AM 57.8290 39.7890 246° West 477 549 36,000  Level FlightAware ADS-B
Sun 06:01:52 AM 57.7890 39.6260 245° Southwest 480 552 36,000  Level FlightAware ADS-B
Sun 06:02:27 AM 57.7560 39.4930 245° Southwest 481 554 36,000  Level FlightAware ADS-B
Sun 06:03:17 AM 57.7130 39.3140 246° West 482 555 36,000  Level FlightAware ADS-B
Sun 06:03:57 AM 57.6740 39.1570 245° Southwest 481 554 36,000  Level FlightAware ADS-B
Sun 06:04:37 AM 57.6380 39.0150 245° Southwest 481 554 36,000  Level FlightAware ADS-B
Sun 06:05:22 AM 57.5950 38.8450 245° Southwest 481 554 36,000  Level FlightAware ADS-B
Sun 06:06:02 AM 57.5580 38.6970 245° Southwest 483 556 36,000  Level FlightAware ADS-B
Sun 06:06:47 AM 57.5130 38.5230 244° Southwest 484 557 36,000  Level FlightAware ADS-B
Sun 06:07:22 AM 57.4810 38.3960 245° Southwest 484 557 36,000  Level FlightAware ADS-B
Sun 06:08:07 AM 57.4340 38.2170 244° Southwest 486 559 36,000  Level FlightAware ADS-B
Sun 06:08:52 AM 57.3900 38.0460 245° Southwest 486 559 36,000  Level FlightAware ADS-B
Sun 06:09:32 AM 57.3530 37.9040 244° Southwest 486 559 36,000  Level FlightAware ADS-B
Sun 06:10:12 AM 57.3120 37.7510 244° Southwest 487 560 36,000  Level FlightAware ADS-B
Sun 06:10:57 AM 57.2690 37.5880 244° Southwest 488 562 36,000  Level FlightAware ADS-B
Sun 06:11:37 AM 57.2300 37.4450 243° Southwest 490 564 36,000  Level FlightAware ADS-B
Sun 06:14:00 AM 57.1745 36.9092 259° West  Level Estimated
Sun 06:15:00 AM 57.1505 36.6849 259° West  Level Estimated
Sun 06:15:17 AM 57.0040 36.6180 259° West 492 566 36,000  Level FlightAware ADS-B
Sun 06:16:07 AM 56.9500 36.4240 243° Southwest 492 566 36,000  Level FlightAware ADS-B
Sun 06:16:47 AM 56.9080 36.2770 242° Southwest 494 568 36,000  Level FlightAware ADS-B
Sun 06:17:27 AM 56.8670 36.1320 243° Southwest 496 571 36,000  Level FlightAware ADS-B
Sun 06:18:12 AM 56.8230 35.9790 242° Southwest 496 571 36,000  Level FlightAware ADS-B
Sun 06:18:52 AM 56.7770 35.8180 243° Southwest 491 565 36,000  Level FlightAware ADS-B
Sun 06:19:32 AM 56.7340 35.6690 242° Southwest 490 564 36,000  Level FlightAware ADS-B
Sun 06:20:17 AM 56.6860 35.5050 242° Southwest 490 564 36,000  Level FlightAware ADS-B
Sun 06:20:57 AM 56.6440 35.3620 242° Southwest 493 567 36,000  Level FlightAware ADS-B
Sun 06:21:42 AM 56.5950 35.1950 242° Southwest 493 567 36,000  Level FlightAware ADS-B
Sun 06:22:22 AM 56.5530 35.0550 241° Southwest 493 567 36,000  Level FlightAware ADS-B
Sun 06:23:07 AM 56.5050 34.8930 242° Southwest 492 566 36,000  Level FlightAware ADS-B
Sun 06:23:47 AM 56.4590 34.7500 240° Southwest 496 571 36,000  Level FlightAware ADS-B
Sun 06:24:27 AM 56.4140 34.6100 240° Southwest 496 571 36,000  Level FlightAware ADS-B
Sun 06:25:12 AM 56.3600 34.4430 240° Southwest 496 571 36,000  Level FlightAware ADS-B
Sun 06:25:52 AM 56.3160 34.3070 240° Southwest 498 573 36,000  Level FlightAware ADS-B
Sun 06:26:32 AM 56.2690 34.1630 240° Southwest 496 571 36,000  Level FlightAware ADS-B
Sun 06:27:17 AM 56.2160 34.0050 239° Southwest 493 567 36,000  Level FlightAware ADS-B
Sun 06:27:57 AM 56.1680 33.8640 239° Southwest 495 570 36,000  Level FlightAware ADS-B
Sun 06:28:42 AM 56.1190 33.7170 239° Southwest 496 571 36,000  Level FlightAware ADS-B
Sun 06:29:22 AM 56.0680 33.5660 239° Southwest 492 566 36,000  Level FlightAware ADS-B
Sun 06:30:02 AM 56.0200 33.4270 238° Southwest 488 562 36,000  Level FlightAware ADS-B
Sun 06:30:37 AM 55.9800 33.3070 239° Southwest 489 563 36,000  Level FlightAware ADS-B
Sun 06:31:12 AM 55.9390 33.1850 239° Southwest 492 566 36,000  Level FlightAware ADS-B
Sun 06:31:57 AM 55.8880 33.0330 239° Southwest 492 566 36,000  Level FlightAware ADS-B
Sun 06:32:42 AM 55.8490 32.8650 248° West 480 552 36,000  Level FlightAware ADS-B
Sun 06:33:22 AM 55.8270 32.7250 254° West 476 548 36,000  Level FlightAware ADS-B
Sun 06:34:02 AM 55.8060 32.5620 257° West 479 551 36,000  Level FlightAware ADS-B
Sun 06:34:47 AM 55.7840 32.3930 257° West 479 551 36,000  Level FlightAware ADS-B
Sun 06:35:27 AM 55.7640 32.2520 256° West 479 551 36,000  Level FlightAware ADS-B
Sun 06:36:07 AM 55.7430 32.0920 257° West 480 552 36,000  Level FlightAware ADS-B
Sun 06:36:47 AM 55.7250 31.9620 256° West 480 552 36,000  Level FlightAware ADS-B
Sun 06:37:37 AM 55.7020 31.8000 256° West 480 552 36,000  Level FlightAware ADS-B
Sun 06:38:17 AM 55.6840 31.6700 256° West 480 552 36,000  Level FlightAware ADS-B
Sun 06:38:57 AM 55.6650 31.5400 256° West 480 552 36,000  Level FlightAware ADS-B
Sun 06:39:37 AM 55.6470 31.4100 256° West 480 552 36,000  Level FlightAware ADS-B
Sun 06:40:17 AM 55.6290 31.2800 256° West 480 552 36,000  Level FlightAware ADS-B
Sun 06:41:07 AM 55.6060 31.1180 256° West 480 552 36,000  Level FlightAware ADS-B
Sun 06:41:47 AM 55.5880 30.9880 256° West 480 552 36,000  Level FlightAware ADS-B
Sun 06:42:27 AM 55.5690 30.8590 255° West 480 552 36,000  Level FlightAware ADS-B
Sun 06:43:07 AM 55.5510 30.7290 256° West 480 552 36,000  Level FlightAware ADS-B
Sun 06:43:47 AM 55.5330 30.6000 256° West 480 552 36,000  Level FlightAware ADS-B
Sun 06:44:37 AM 55.5100 30.4380 256° West 480 552 36,000  Level FlightAware ADS-B
Sun 06:45:17 AM 55.4920 30.3090 256° West 480 552 36,000  Level FlightAware ADS-B
Sun 06:45:57 AM 55.4120 29.8420 253° West 473 544 36,000  Level FlightAware ADS-B
Sun 06:46:52 AM 55.3810 29.6450 255° West 472 543 36,000  Level FlightAware ADS-B
Sun 06:47:37 AM 55.3540 29.4770 254° West 466 536 36,000  Level FlightAware ADS-B
Sun 06:48:17 AM 55.3300 29.3230 255° West 465 535 36,000  Level FlightAware ADS-B
Sun 06:49:02 AM 55.3030 29.1590 254° West 465 535 36,000  Level FlightAware ADS-B
Sun 06:49:42 AM 55.2790 29.0120 254° West 464 534 36,000  Level FlightAware ADS-B
Sun 06:50:27 AM 55.2530 28.8520 254° West 462 532 36,000  Level FlightAware ADS-B
Sun 06:51:07 AM 55.2290 28.7080 254° West 459 528 36,000  Level FlightAware ADS-B
Sun 06:51:42 AM 55.2080 28.5840 254° West 459 528 36,000  Level FlightAware ADS-B
Sun 06:52:32 AM 55.1780 28.4050 254° West 461 531 36,000  Level FlightAware ADS-B
Sun 06:53:07 AM 55.1580 28.2880 253° West 460 529 36,000  Level FlightAware ADS-B
Sun 06:53:52 AM 55.1310 28.1350 253° West 458 527 36,000  Level FlightAware ADS-B
Sun 06:54:37 AM 55.1030 27.9660 254° West 456 525 36,000  Level FlightAware ADS-B
Sun 06:55:17 AM 55.0780 27.8230 253° West 457 526 36,000  Level FlightAware ADS-B
Sun 06:56:02 AM 55.0510 27.6670 253° West 457 526 36,000  Level FlightAware ADS-B
Sun 06:56:42 AM 55.0250 27.5210 253° West 461 531 36,000  Level FlightAware ADS-B
Sun 06:57:27 AM 54.9970 27.3650 253° West 464 534 36,000  Level FlightAware ADS-B
Sun 06:58:07 AM 54.9710 27.2220 252° West 464 534 36,000  Level FlightAware ADS-B
Sun 06:58:47 AM 54.9450 27.0790 252° West 463 533 36,000  Level FlightAware ADS-B
Sun 06:59:32 AM 54.9160 26.9180 253° West 463 533 36,000  Level FlightAware ADS-B
Sun 07:00:12 AM 54.8910 26.7850 252° West 466 536 36,000  Level FlightAware ADS-B
Sun 07:00:57 AM 54.8600 26.6180 252° West 468 539 36,000  Level FlightAware ADS-B
Sun 07:01:37 AM 54.8340 26.4780 252° West 470 541 36,000  Level FlightAware ADS-B
Sun 07:02:17 AM 54.8070 26.3360 252° West 469 540 36,000  Level FlightAware ADS-B
Sun 07:03:02 AM 54.7760 26.1710 252° West 468 539 36,000  Level FlightAware ADS-B
Sun 07:03:42 AM 54.7490 26.0300 252° West 470 541 36,000  Level FlightAware ADS-B
Sun 07:04:27 AM 54.7180 25.8710 251° West 470 541 36,000  Level FlightAware ADS-B
Sun 07:05:07 AM 54.6910 25.7320 251° West 467 537 36,000  Level FlightAware ADS-B
Sun 07:05:47 AM 54.6630 25.5910 251° West 466 536 36,000  Level FlightAware ADS-B
Sun 07:06:32 AM 54.6300 25.4300 251° West 468 539 36,000  Level FlightAware ADS-B
Sun 07:07:12 AM 54.6010 25.2910 250° West 470 541 36,000  Level FlightAware ADS-B
Sun 07:07:52 AM 54.5720 25.1480 251° West 470 541 36,000  Level FlightAware ADS-B
Sun 07:08:37 AM 54.5390 24.9930 250° West 468 539 36,000  Level FlightAware ADS-B
Sun 07:09:17 AM 54.5100 24.8530 250° West 470 541 36,000  Level FlightAware ADS-B
Sun 07:10:02 AM 54.4760 24.6940 250° West 472 543 36,000  Level FlightAware ADS-B
Sun 07:10:42 AM 54.4470 24.5560 250° West 471 542 36,000  Level FlightAware ADS-B
Sun 07:11:22 AM 54.4190 24.4270 250° West 469 540 36,000  Level FlightAware ADS-B
Sun 07:12:07 AM 54.3820 24.2550 250° West 467 537 36,000  Level FlightAware ADS-B
Sun 07:12:47 AM 54.3520 24.1180 249° West 465 535 36,000  Level FlightAware ADS-B
Sun 07:13:32 AM 54.3220 23.9780 250° West 464 534 36,000  Level FlightAware ADS-B
Sun 07:14:12 AM 54.2890 23.8310 249° West 465 535 36,000  Level FlightAware ADS-B
Sun 07:14:52 AM 54.2590 23.6920 250° West 466 536 36,000  Level FlightAware ADS-B
Sun 07:15:37 AM 54.2230 23.5340 249° West 465 535 36,000  Level FlightAware ADS-B
Sun 07:16:17 AM 54.1960 23.3940 252° West 464 534 36,000  Level FlightAware ADS-B
Sun 07:17:02 AM 54.1670 23.2420 252° West 465 535 36,000  Level FlightAware ADS-B
Sun 07:17:42 AM 54.1380 23.1040 250° West 466 536 36,000  Level FlightAware ADS-B
Sun 07:18:22 AM 54.1100 22.9660 251° West 468 539 36,000  Level FlightAware ADS-B
Sun 07:19:07 AM 54.0770 22.8030 251° West 466 536 36,000  Level FlightAware ADS-B
Sun 07:19:47 AM 54.0500 22.6720 251° West 467 537 36,000  Level FlightAware ADS-B
Sun 07:20:32 AM 54.0170 22.5160 250° West 468 539 36,000  Level FlightAware ADS-B
Sun 07:21:12 AM 53.9870 22.3720 251° West 470 541 36,000  Level FlightAware ADS-B
Sun 07:21:52 AM 53.9590 22.2390 250° West 470 541 36,000  Level FlightAware ADS-B
Sun 07:22:37 AM 53.9240 22.0760 250° West 471 542 36,000  Level FlightAware ADS-B
Sun 07:23:17 AM 53.8940 21.9380 250° West 472 543 36,000  Level FlightAware ADS-B
Sun 07:24:02 AM 53.8610 21.7860 250° West 472 543 36,000  Level FlightAware ADS-B
Sun 07:24:42 AM 53.8320 21.6500 250° West 471 542 36,000  Level FlightAware ADS-B
Sun 07:25:22 AM 53.8010 21.5110 249° West 472 543 36,000  Level FlightAware ADS-B
Sun 07:26:07 AM 53.7660 21.3530 250° West 474 545 36,000  Level FlightAware ADS-B
Sun 07:26:47 AM 53.7360 21.2150 250° West 475 547 36,000  Level FlightAware ADS-B
Sun 07:27:32 AM 53.7010 21.0630 249° West 476 548 36,000  Level FlightAware ADS-B
Sun 07:28:12 AM 53.6700 20.9260 249° West 476 548 36,000  Level FlightAware ADS-B
Sun 07:28:57 AM 53.6340 20.7640 250° West 475 547 36,000  Level FlightAware ADS-B
Sun 07:29:37 AM 53.6020 20.6260 249° West 474 545 36,000  Level FlightAware ADS-B
Sun 07:30:17 AM 53.5710 20.4930 249° West 474 545 36,000  Level FlightAware ADS-B
Sun 07:30:57 AM 53.5400 20.3560 249° West 474 545 36,000  Level FlightAware ADS-B
Sun 07:31:42 AM 53.5040 20.2020 249° West 475 547 36,000  Level FlightAware ADS-B
Sun 07:32:22 AM 53.4720 20.0660 248° West 476 548 36,000  Level FlightAware ADS-B
Sun 07:33:07 AM 53.4350 19.9100 248° West 477 549 36,000  Level FlightAware ADS-B
Sun 07:33:47 AM 53.4010 19.7690 248° West 479 551 36,000  Level FlightAware ADS-B
Sun 07:34:32 AM 53.3660 19.6200 249° West 480 552 36,000  Level FlightAware ADS-B
Sun 07:35:12 AM 53.3320 19.4810 248° West 480 552 36,000  Level FlightAware ADS-B
Sun 07:35:57 AM 53.2950 19.3270 248° West 479 551 36,000  Level FlightAware ADS-B
Sun 07:36:37 AM 53.2600 19.1870 247° West 480 552 36,000  Level FlightAware ADS-B
Sun 07:37:17 AM 53.2260 19.0490 248° West 480 552 36,000  Level FlightAware ADS-B
Sun 07:38:02 AM 53.1890 18.9000 248° West 479 551 36,000  Level FlightAware ADS-B
Sun 07:38:42 AM 53.1560 18.7660 248° West 479 551 36,000  Level FlightAware ADS-B
Sun 07:39:22 AM 53.1220 18.6300 247° West 479 551 36,000  Level FlightAware ADS-B
Sun 07:40:07 AM 53.0820 18.4710 247° West 479 551 36,000  Level FlightAware ADS-B
Sun 07:40:47 AM 53.0480 18.3390 247° West 479 551 36,000  Level FlightAware ADS-B
Sun 07:41:32 AM 53.0100 18.1920 247° West 480 552 36,000  Level FlightAware ADS-B
Sun 07:42:12 AM 52.9760 18.0570 247° West 478 550 36,000  Level FlightAware ADS-B
Sun 07:42:52 AM 52.9400 17.9190 247° West 475 547 36,000  Level FlightAware ADS-B
Sun 07:43:37 AM 52.9000 17.7650 247° West 473 544 36,000  Level FlightAware ADS-B
Sun 07:44:17 AM 52.8650 17.6340 246° West 472 543 36,000  Level FlightAware ADS-B
Sun 07:45:02 AM 52.8300 17.4990 247° West 471 542 36,000  Level FlightAware ADS-B
Sun 07:45:42 AM 52.7920 17.3570 246° West 471 542 36,000  Level FlightAware ADS-B
Sun 07:46:22 AM 52.7560 17.2220 246° West 467 537 36,000  Level FlightAware ADS-B
Sun 07:47:07 AM 52.7170 17.0780 246° West 468 539 36,000  Level FlightAware ADS-B
Sun 07:47:47 AM 52.6830 16.9530 246° West 466 536 36,000  Level FlightAware ADS-B
Sun 07:48:32 AM 52.6440 16.8060 246° West 466 536 36,000  Level FlightAware ADS-B
Sun 07:49:12 AM 52.6080 16.6770 245° Southwest 464 534 36,000  Level FlightAware ADS-B
Sun 07:49:47 AM 52.5800 16.5750 246° West 456 525 36,000  Level FlightAware ADS-B
Sun 07:50:27 AM 52.5440 16.4450 246° West 461 531 36,000  Level FlightAware ADS-B
Sun 07:51:02 AM 52.5140 16.3360 246° West 462 532 36,000  Level FlightAware ADS-B
Sun 07:51:37 AM 52.4820 16.2210 245° Southwest 464 534 36,000  Level FlightAware ADS-B
Sun 07:52:02 AM 52.4600 16.1450 245° Southwest 464 534 36,000  Level FlightAware ADS-B
Sun 07:52:42 AM 52.4240 16.0160 245° Southwest 464 534 36,000  Level FlightAware ADS-B
Sun 07:53:17 AM 52.3930 15.9050 245° Southwest 466 536 36,000  Level FlightAware ADS-B
Sun 07:53:47 AM 52.3660 15.8100 245° Southwest 466 536 36,000  Level FlightAware ADS-B
Sun 07:54:17 AM 52.3380 15.7130 245° Southwest 465 535 36,000  Level FlightAware ADS-B
Sun 07:54:47 AM 52.3110 15.6170 245° Southwest 466 536 36,000  Level FlightAware ADS-B
Sun 07:55:22 AM 52.2800 15.5120 244° Southwest 463 533 36,000  Level FlightAware ADS-B
Sun 07:55:52 AM 52.2510 15.4110 245° Southwest 464 534 36,000  Level FlightAware ADS-B
Sun 07:56:37 AM 52.2100 15.2690 245° Southwest 463 533 36,000  Level FlightAware ADS-B
Sun 07:57:17 AM 52.1720 15.1400 244° Southwest 462 532 36,000  Level FlightAware ADS-B
Sun 07:57:57 AM 52.1360 15.0170 245° Southwest 462 532 36,000  Level FlightAware ADS-B
Sun 07:58:52 AM 52.0840 14.8400 245° Southwest 464 534 36,000  Level FlightAware ADS-B
Sun 07:59:32 AM 52.0470 14.7160 244° Southwest 464 534 36,000  Level FlightAware ADS-B
Sun 08:00:22 AM 52.0040 14.5560 246° West 462 532 36,000  Level FlightAware ADS-B
Sun 08:00:57 AM 51.9730 14.4430 246° West 462 532 36,000  Level FlightAware ADS-B
Sun 08:01:32 AM 51.9430 14.3320 246° West 462 532 36,000  Level FlightAware ADS-B
Sun 08:02:17 AM 51.9030 14.1910 245° Southwest 465 535 36,000  Level FlightAware ADS-B
Sun 08:02:52 AM 51.8730 14.0810 246° West 467 537 36,000  Level FlightAware ADS-B
Sun 08:03:32 AM 51.8370 13.9520 246° West 467 537 36,000  Level FlightAware ADS-B
Sun 08:04:12 AM 51.8020 13.8290 245° Southwest 464 534 36,000  Level FlightAware ADS-B
Sun 08:04:57 AM 51.7600 13.6810 245° Southwest 464 534 36,000  Level FlightAware ADS-B
Sun 08:05:27 AM 51.7340 13.5900 245° Southwest 465 535 36,000  Level FlightAware ADS-B
Sun 08:06:07 AM 51.6980 13.4620 246° West 466 536 36,000  Level FlightAware ADS-B
Sun 08:06:47 AM 51.6610 13.3340 245° Southwest 467 537 36,000  Level FlightAware ADS-B
Sun 08:07:27 AM 51.6250 13.2100 245° Southwest 465 535 36,000  Level FlightAware ADS-B
Sun 08:08:12 AM 51.5830 13.0660 245° Southwest 465 535 36,000  Level FlightAware ADS-B
Sun 08:08:52 AM 51.5490 12.9490 245° Southwest 466 536 36,000  Level FlightAware ADS-B
Sun 08:09:37 AM 51.5050 12.8010 245° Southwest 463 533 36,000 -847 Level FlightAware ADS-B
Sun 08:10:17 AM 51.4690 12.6770 245° Southwest 467 537 34,800 -2,682 Descending FlightAware ADS-B
Sun 08:11:02 AM 51.4250 12.5330 244° Southwest 488 562 32,200 -1,976 Descending FlightAware ADS-B
Sun 08:11:42 AM 51.3790 12.4050 240° Southwest 490 564 32,000 -1,500 Descending FlightAware ADS-B
Sun 08:12:22 AM 51.3340 12.2800 240° Southwest 487 560 30,200 -2,824 Descending FlightAware ADS-B
Sun 08:13:07 AM 51.2870 12.1380 242° Southwest 470 541 28,000 -2,965 Descending FlightAware ADS-B
Sun 08:13:47 AM 51.2470 12.0180 242° Southwest 458 527 26,000 -3,035 Descending FlightAware ADS-B
Sun 08:14:32 AM 51.2010 11.8810 242° Southwest 446 513 23,700 -2,753 Descending FlightAware ADS-B
Sun 08:15:12 AM 51.1620 11.7670 241° Southwest 444 511 22,100 -1,275 Descending FlightAware ADS-B
Sun 08:15:52 AM 51.1230 11.6540 241° Southwest 441 507 22,000 -141 Descending FlightAware ADS-B
Sun 08:16:37 AM 51.0790 11.5250 242° Southwest 442 509 21,900 -988 Descending FlightAware ADS-B
Sun 08:17:17 AM 51.0440 11.4200 242° Southwest 428 493 20,600 -2,550 Descending FlightAware ADS-B
Sun 08:17:57 AM 51.0040 11.3000 242° Southwest 419 482 18,500 -2,753 Descending FlightAware ADS-B
Sun 08:18:42 AM 50.9650 11.1870 241° Southwest 415 478 16,700 -1,875 Descending FlightAware ADS-B
Sun 08:19:17 AM 50.9310 11.0850 242° Southwest 411 473 16,000 -494 Descending FlightAware ADS-B
Sun 08:20:07 AM 50.8880 10.9630 241° Southwest 411 473 16,000  Level FlightAware ADS-B
Sun 08:20:47 AM 50.8570 10.8730 241° Southwest 411 473 16,000  Level FlightAware ADS-B
Sun 08:21:27 AM 50.8250 10.7840 240° Southwest 411 473 16,000  Level FlightAware ADS-B
Sun 08:22:07 AM 50.7940 10.6940 241° Southwest 411 473 16,000  Level FlightAware ADS-B
Sun 08:23:02 AM 50.7350 10.5180 242° Southwest 412 474 16,000  Level FlightAware ADS-B
Sun 08:24:02 AM 50.6790 10.3580 241° Southwest 415 478 16,000  Level FlightAware ADS-B
Sun 08:24:42 AM 50.6480 10.2680 242° Southwest 415 478 16,000 -2,400 Level FlightAware ADS-B
Sun 08:26:07 AM 50.5580 10.0160 241° Southwest 383 441 11,000 -2,769 Descending FlightAware ADS-B
Sun 08:26:52 AM 50.5200 9.9080 241° Southwest 383 441 10,000 -750 Descending FlightAware ADS-B
Sun 08:27:27 AM 50.4880 9.8200 240° Southwest 382 440 10,000  Level FlightAware ADS-B
Sun 08:28:07 AM 50.4500 9.7130 241° Southwest 10,000  Level FlightAware ADS-B
Sun 08:28:57 AM 50.4080 9.6050 239° Southwest 387 445 10,000  Level FlightAware ADS-B
Sun 08:29:42 AM 50.3650 9.4960 238° Southwest 383 441 10,000  Level FlightAware ADS-B
Sun 08:29:52 AM 50.3570 9.4770 237° Southwest 383 441 10,000 -1,350 Level FlightAware ADS-B
Sun 08:30:22 AM 50.3290 9.4040 239° Southwest 375 432 9,100 -2,000 Descending FlightAware ADS-B
Sun 08:30:37 AM 50.3140 9.3670 238° Southwest 368 423 8,500 -2,250 Descending FlightAware ADS-B
Sun 08:31:02 AM 50.2910 9.3100 238° Southwest 364 419 7,600 -2,291 Descending FlightAware ADS-B
Sun 08:31:32 AM 50.2670 9.2480 239° Southwest 363 418 6,400 -1,867 Descending FlightAware ADS-B
Sun 08:31:47 AM 50.2560 9.2210 238° Southwest 358 412 6,200 -900 Descending FlightAware ADS-B
Sun 08:32:12 AM 50.2330 9.1630 238° Southwest 330 380 5,800 -873 Descending FlightAware ADS-B
Sun 08:32:42 AM 50.2080 9.1010 238° Southwest 309 356 5,400 -1,100 Descending FlightAware ADS-B
Sun 08:33:12 AM 50.1860 9.0470 238° Southwest 296 341 4,700 -982 Descending FlightAware ADS-B
Sun 08:33:37 AM 50.1690 9.0030 239° Southwest 271 312 4,500 -436 Descending FlightAware ADS-B
Sun 08:34:07 AM 50.1500 8.9610 235° Southwest 253 291 4,300 -514 Descending FlightAware ADS-B
Sun 08:34:47 AM 50.1220 8.9000 234° Southwest 229 264 3,900 -436 Descending FlightAware ADS-B
Sun 08:35:02 AM 50.1150 8.8770 245° Southwest 214 246 3,900 -267 Level FlightAware ADS-B
Sun 08:35:32 AM 50.1040 8.8350 248° West 200 230 3,700 -764 Descending FlightAware ADS-B
Sun 08:35:57 AM 50.0960 8.8020 249° West 199 229 3,200 -1,050 Descending FlightAware ADS-B
Sun 08:36:12 AM 50.0910 8.7810 250° West 197 227 3,000 -1,067 Descending FlightAware ADS-B
Sun 08:36:42 AM 50.0820 8.7410 251° West 191 220 2,400 -1,091 Descending FlightAware ADS-B
Sun 08:37:07 AM 50.0750 8.7120 249° West 173 199 2,000 -873 Descending FlightAware ADS-B
Sun 08:37:37 AM 50.0670 8.6780 250° West 151 174 1,600 -873 Descending FlightAware ADS-B
Sun 08:38:02 AM 50.0610 8.6520 250° West 152 175 1,200 -873 Descending FlightAware ADS-B
Sun 08:38:32 AM 50.0540 8.6230 249° West 151 174 800 -667 Descending FlightAware ADS-B
Sun 08:38:47 AM 50.0510 8.6110 249° West 150 173 700 -857 Descending FlightAware ADS-B
Sun 08:39:07 AM 50.0460 8.5890 251° West 144 166 300 -533 Descending FlightAware ADS-B
Sun 08:39:32 AM 50.0400 8.5650 249° West 144 166 300  Level FlightAware ADS-B
Sun 08:42:00 AM 50.0264 8.5431 226° Southwest  Level Estimated
Sun 08:43:00 AM 50.0264 8.5431 73° East  Level Estimated
Sun 08:44:00 AM 50.0264 8.5431 73° East  Level Estimated
Sun 08:45:00 AM 50.0264 8.5431 73° East  Level Estimated
Sun 08:46:00 AM 50.0264 8.5431 73° East  Level Estimated

Login

Don't have an account? Register now (free) for customized features, flight alerts, and more!